This is the latest recevied weather packets stored in our database for station/object KJ4HF. If no packets are shown the sender has not sent any weather packets the latest 10 day(s).
| Time | Temp. | Humidity | Pressure | Rain* | Wind** | Luminosity | Snow |
|---|---|---|---|---|---|---|---|
| 1778295654 | 13.89° C | 70% | 1015 hPa | 0 mm | - | 0 W/m² | - |
| 1778291151 | 13.89° C | 76% | 1015.1 hPa | 0 mm | - | 0 W/m² | - |
| 1778289353 | 13.89° C | 74% | 1015 hPa | 0 mm | - | 0 W/m² | - |
| 1778288447 | 13.89° C | 72% | 1014.8 hPa | 0 mm | - | 0 W/m² | - |
| 1778284542 | 15.56° C | 62% | 1014.4 hPa | 0 mm | - | 18 W/m² | - |
| 1778281251 | 18.33° C | 48% | 1014.4 hPa | 0 mm | - | 88 W/m² | - |
| 1778279143 | 20° C | 39% | 1014.3 hPa | 0 mm | - | 167 W/m² | - |
| 1778278842 | 20° C | 40% | 1014.5 hPa | 0 mm | - | 276 W/m² | - |
| 1778277945 | 20° C | 43% | 1014.2 hPa | 0 mm | - | 308 W/m² | - |
| 1778277651 | 20° C | 39% | 1014.1 hPa | 0 mm | - | 366 W/m² | - |
| 1778277042 | 20° C | 44% | 1014.2 hPa | 0 mm | - | 350 W/m² | - |
| 1778273742 | 21.11° C | 31% | 1014.6 hPa | 0 mm | - | 508 W/m² | - |
| 1778272845 | 20° C | 39% | 1014.6 hPa | 0 mm | - | 599 W/m² | - |
| 1778272542 | 20.56° C | 34% | 1014.7 hPa | 0 mm | - | 376 W/m² | - |
| 1778272259 | 20° C | 34% | 1014.7 hPa | 0 mm | - | 424 W/m² | - |
| 1778271359 | 20.56° C | 34% | 1014.7 hPa | 0 mm | - | 482 W/m² | - |
| 1778271044 | 21.11° C | 37% | 1014.9 hPa | 0 mm | - | 707 W/m² | - |
| 1778270744 | 20.56° C | 33% | 1015.2 hPa | 0 mm | - | 830 W/m² | - |
| 1778269850 | 21.11° C | 32% | 1015.3 hPa | 0 mm | - | 854 W/m² | - |
| 1778269245 | 20.56° C | 34% | 1015.6 hPa | 0 mm | - | 889 W/m² | - |
| 1778268045 | 20.56° C | 34% | 1015.7 hPa | 0 mm | - | 724 W/m² | - |
| 1778267750 | 20.56° C | 37% | 1015.8 hPa | 0 mm | - | 865 W/m² | - |
| 1778267441 | 20.56° C | 33% | 1015.8 hPa | 0 mm | - | 891 W/m² | - |
| 1778266548 | 20.56° C | 35% | 1016.3 hPa | 0 mm | - | 947 W/m² | - |
| 1778265953 | 20.56° C | 35% | 1016.2 hPa | 0 mm | - | 974 W/m² | - |
* Rain latest hour (hover to see other rain measurements)
** Current wind speed in m/s (hover to see current wind gust speed)